sensor_id;sensor_type;location;lat;lon;timestamp;P1;durP1;ratioP1;P2;durP2;ratioP2
16890;SDS011;8562;52.246;20.966;2023-07-13T00:01:50;7.63;;;6.63;;
16890;SDS011;8562;52.246;20.966;2023-07-13T00:04:17;8.60;;;7.00;;
16890;SDS011;8562;52.246;20.966;2023-07-13T00:06:43;10.30;;;7.07;;
16890;SDS011;8562;52.246;20.966;2023-07-13T00:09:10;9.07;;;6.03;;
16890;SDS011;8562;52.246;20.966;2023-07-13T00:11:37;8.13;;;6.87;;
16890;SDS011;8562;52.246;20.966;2023-07-13T00:14:03;9.63;;;6.27;;
16890;SDS011;8562;52.246;20.966;2023-07-13T00:16:28;8.97;;;6.37;;
16890;SDS011;8562;52.246;20.966;2023-07-13T00:18:53;6.87;;;5.97;;
16890;SDS011;8562;52.246;20.966;2023-07-13T00:21:19;8.43;;;7.47;;
16890;SDS011;8562;52.246;20.966;2023-07-13T00:23:44;7.93;;;5.73;;
16890;SDS011;8562;52.246;20.966;2023-07-13T00:26:10;8.97;;;5.70;;
16890;SDS011;8562;52.246;20.966;2023-07-13T00:28:37;8.50;;;6.50;;
16890;SDS011;8562;52.246;20.966;2023-07-13T00:31:02;7.40;;;5.87;;
16890;SDS011;8562;52.246;20.966;2023-07-13T00:33:28;9.33;;;6.80;;
16890;SDS011;8562;52.246;20.966;2023-07-13T00:35:54;8.57;;;6.00;;
16890;SDS011;8562;52.246;20.966;2023-07-13T00:38:19;8.80;;;6.23;;
16890;SDS011;8562;52.246;20.966;2023-07-13T00:40:45;8.30;;;6.60;;
16890;SDS011;8562;52.246;20.966;2023-07-13T00:43:19;7.80;;;6.47;;
16890;SDS011;8562;52.246;20.966;2023-07-13T00:48:14;8.63;;;6.83;;
16890;SDS011;8562;52.246;20.966;2023-07-13T00:50:41;10.27;;;7.33;;
16890;SDS011;8562;52.246;20.966;2023-07-13T00:53:07;10.10;;;7.30;;
16890;SDS011;8562;52.246;20.966;2023-07-13T00:55:33;8.77;;;6.33;;
16890;SDS011;8562;52.246;20.966;2023-07-13T00:57:58;8.57;;;5.80;;
16890;SDS011;8562;52.246;20.966;2023-07-13T01:00:24;8.70;;;6.87;;
16890;SDS011;8562;52.246;20.966;2023-07-13T01:02:51;11.03;;;7.20;;
16890;SDS011;8562;52.246;20.966;2023-07-13T01:05:17;12.67;;;7.67;;
16890;SDS011;8562;52.246;20.966;2023-07-13T01:07:43;12.03;;;8.23;;
16890;SDS011;8562;52.246;20.966;2023-07-13T01:10:09;9.10;;;6.63;;
16890;SDS011;8562;52.246;20.966;2023-07-13T01:12:35;9.93;;;7.13;;
16890;SDS011;8562;52.246;20.966;2023-07-13T01:15:01;9.57;;;6.87;;
16890;SDS011;8562;52.246;20.966;2023-07-13T01:17:27;10.30;;;6.77;;
16890;SDS011;8562;52.246;20.966;2023-07-13T01:19:53;9.13;;;6.80;;
16890;SDS011;8562;52.246;20.966;2023-07-13T01:22:18;7.93;;;7.13;;
16890;SDS011;8562;52.246;20.966;2023-07-13T01:24:44;9.00;;;7.30;;
16890;SDS011;8562;52.246;20.966;2023-07-13T01:27:11;8.97;;;7.33;;
16890;SDS011;8562;52.246;20.966;2023-07-13T01:29:39;11.57;;;7.90;;
16890;SDS011;8562;52.246;20.966;2023-07-13T01:32:08;12.77;;;8.03;;
16890;SDS011;8562;52.246;20.966;2023-07-13T01:34:33;9.20;;;7.27;;
16890;SDS011;8562;52.246;20.966;2023-07-13T01:36:58;13.43;;;7.37;;
16890;SDS011;8562;52.246;20.966;2023-07-13T01:39:24;10.30;;;8.03;;
16890;SDS011;8562;52.246;20.966;2023-07-13T01:41:49;9.10;;;7.63;;
16890;SDS011;8562;52.246;20.966;2023-07-13T01:44:17;10.27;;;7.07;;
16890;SDS011;8562;52.246;20.966;2023-07-13T01:46:42;9.57;;;7.80;;
16890;SDS011;8562;52.246;20.966;2023-07-13T01:49:07;12.47;;;8.27;;
16890;SDS011;8562;52.246;20.966;2023-07-13T01:51:33;10.83;;;7.57;;
16890;SDS011;8562;52.246;20.966;2023-07-13T01:53:58;8.67;;;6.87;;
16890;SDS011;8562;52.246;20.966;2023-07-13T01:56:23;11.47;;;8.10;;
16890;SDS011;8562;52.246;20.966;2023-07-13T01:58:49;9.03;;;7.60;;
16890;SDS011;8562;52.246;20.966;2023-07-13T02:01:14;10.87;;;7.80;;
16890;SDS011;8562;52.246;20.966;2023-07-13T02:03:39;12.13;;;8.23;;
16890;SDS011;8562;52.246;20.966;2023-07-13T02:06:05;13.77;;;8.07;;
16890;SDS011;8562;52.246;20.966;2023-07-13T02:08:30;10.53;;;7.90;;
16890;SDS011;8562;52.246;20.966;2023-07-13T02:10:56;10.00;;;7.57;;
16890;SDS011;8562;52.246;20.966;2023-07-13T02:13:21;11.67;;;8.23;;
16890;SDS011;8562;52.246;20.966;2023-07-13T02:15:49;10.07;;;7.87;;
16890;SDS011;8562;52.246;20.966;2023-07-13T02:18:14;11.63;;;7.33;;
16890;SDS011;8562;52.246;20.966;2023-07-13T02:20:42;11.77;;;7.20;;
16890;SDS011;8562;52.246;20.966;2023-07-13T02:23:07;9.33;;;6.73;;
16890;SDS011;8562;52.246;20.966;2023-07-13T02:25:32;10.90;;;7.87;;
16890;SDS011;8562;52.246;20.966;2023-07-13T02:27:58;11.20;;;7.37;;
16890;SDS011;8562;52.246;20.966;2023-07-13T02:30:23;13.07;;;8.23;;
16890;SDS011;8562;52.246;20.966;2023-07-13T02:32:53;8.83;;;7.93;;
16890;SDS011;8562;52.246;20.966;2023-07-13T02:35:18;14.50;;;8.60;;
16890;SDS011;8562;52.246;20.966;2023-07-13T02:37:43;11.07;;;7.97;;
16890;SDS011;8562;52.246;20.966;2023-07-13T02:40:09;8.73;;;7.37;;
16890;SDS011;8562;52.246;20.966;2023-07-13T02:42:35;11.40;;;8.40;;
16890;SDS011;8562;52.246;20.966;2023-07-13T02:45:00;9.80;;;7.80;;
16890;SDS011;8562;52.246;20.966;2023-07-13T02:47:25;12.90;;;7.87;;
16890;SDS011;8562;52.246;20.966;2023-07-13T02:49:52;12.33;;;8.03;;
16890;SDS011;8562;52.246;20.966;2023-07-13T02:52:17;15.53;;;9.20;;
16890;SDS011;8562;52.246;20.966;2023-07-13T02:54:42;9.83;;;7.63;;
16890;SDS011;8562;52.246;20.966;2023-07-13T02:57:08;8.57;;;7.53;;
16890;SDS011;8562;52.246;20.966;2023-07-13T02:59:33;12.20;;;8.20;;
16890;SDS011;8562;52.246;20.966;2023-07-13T03:02:00;10.20;;;7.90;;
16890;SDS011;8562;52.246;20.966;2023-07-13T03:04:25;9.40;;;7.03;;
16890;SDS011;8562;52.246;20.966;2023-07-13T03:06:51;9.17;;;7.03;;
16890;SDS011;8562;52.246;20.966;2023-07-13T03:09:17;8.23;;;6.97;;
16890;SDS011;8562;52.246;20.966;2023-07-13T03:11:48;9.67;;;7.10;;
16890;SDS011;8562;52.246;20.966;2023-07-13T03:14:21;11.80;;;6.97;;
16890;SDS011;8562;52.246;20.966;2023-07-13T03:16:46;9.87;;;7.13;;
16890;SDS011;8562;52.246;20.966;2023-07-13T03:19:11;8.37;;;6.13;;
16890;SDS011;8562;52.246;20.966;2023-07-13T03:21:37;9.17;;;7.20;;
16890;SDS011;8562;52.246;20.966;2023-07-13T03:24:03;8.50;;;6.13;;
16890;SDS011;8562;52.246;20.966;2023-07-13T03:26:28;8.10;;;5.97;;
16890;SDS011;8562;52.246;20.966;2023-07-13T03:28:55;11.03;;;7.00;;
16890;SDS011;8562;52.246;20.966;2023-07-13T03:31:29;9.67;;;6.90;;
16890;SDS011;8562;52.246;20.966;2023-07-13T03:33:56;8.80;;;6.90;;
16890;SDS011;8562;52.246;20.966;2023-07-13T03:36:25;8.40;;;6.53;;
16890;SDS011;8562;52.246;20.966;2023-07-13T03:38:55;10.53;;;6.63;;
16890;SDS011;8562;52.246;20.966;2023-07-13T03:41:24;7.13;;;5.97;;
16890;SDS011;8562;52.246;20.966;2023-07-13T03:43:52;10.37;;;6.20;;
16890;SDS011;8562;52.246;20.966;2023-07-13T03:46:19;10.23;;;6.50;;
16890;SDS011;8562;52.246;20.966;2023-07-13T03:48:45;8.73;;;7.13;;
16890;SDS011;8562;52.246;20.966;2023-07-13T03:51:11;9.70;;;6.97;;
16890;SDS011;8562;52.246;20.966;2023-07-13T03:53:40;9.07;;;7.20;;
16890;SDS011;8562;52.246;20.966;2023-07-13T03:56:06;11.13;;;7.03;;
16890;SDS011;8562;52.246;20.966;2023-07-13T03:58:33;8.47;;;6.00;;
16890;SDS011;8562;52.246;20.966;2023-07-13T04:01:07;9.40;;;6.50;;
16890;SDS011;8562;52.246;20.966;2023-07-13T04:03:33;12.57;;;7.10;;
16890;SDS011;8562;52.246;20.966;2023-07-13T04:05:59;12.70;;;7.87;;
16890;SDS011;8562;52.246;20.966;2023-07-13T04:08:32;9.07;;;7.33;;
16890;SDS011;8562;52.246;20.966;2023-07-13T04:10:59;11.60;;;7.90;;
16890;SDS011;8562;52.246;20.966;2023-07-13T04:13:24;9.33;;;7.93;;
16890;SDS011;8562;52.246;20.966;2023-07-13T04:15:50;12.87;;;7.20;;
16890;SDS011;8562;52.246;20.966;2023-07-13T04:18:15;14.43;;;8.40;;
16890;SDS011;8562;52.246;20.966;2023-07-13T04:20:41;13.33;;;8.37;;
16890;SDS011;8562;52.246;20.966;2023-07-13T04:23:06;13.30;;;8.57;;
16890;SDS011;8562;52.246;20.966;2023-07-13T04:25:31;12.80;;;9.03;;
16890;SDS011;8562;52.246;20.966;2023-07-13T04:27:56;12.13;;;8.63;;
16890;SDS011;8562;52.246;20.966;2023-07-13T04:30:22;16.83;;;9.50;;
16890;SDS011;8562;52.246;20.966;2023-07-13T04:32:47;13.70;;;9.43;;
16890;SDS011;8562;52.246;20.966;2023-07-13T04:35:13;10.20;;;8.40;;
16890;SDS011;8562;52.246;20.966;2023-07-13T04:37:39;15.97;;;8.87;;
16890;SDS011;8562;52.246;20.966;2023-07-13T04:40:05;12.80;;;9.27;;
16890;SDS011;8562;52.246;20.966;2023-07-13T04:42:31;11.43;;;9.10;;
16890;SDS011;8562;52.246;20.966;2023-07-13T04:44:56;11.77;;;8.67;;
16890;SDS011;8562;52.246;20.966;2023-07-13T04:47:21;13.17;;;9.00;;
16890;SDS011;8562;52.246;20.966;2023-07-13T04:49:46;13.00;;;9.50;;
16890;SDS011;8562;52.246;20.966;2023-07-13T04:52:12;12.03;;;9.43;;
16890;SDS011;8562;52.246;20.966;2023-07-13T04:54:37;15.60;;;8.80;;
16890;SDS011;8562;52.246;20.966;2023-07-13T04:57:03;13.20;;;8.80;;
16890;SDS011;8562;52.246;20.966;2023-07-13T04:59:29;11.47;;;8.30;;
16890;SDS011;8562;52.246;20.966;2023-07-13T05:01:54;10.77;;;9.47;;
16890;SDS011;8562;52.246;20.966;2023-07-13T05:04:20;15.67;;;10.00;;
16890;SDS011;8562;52.246;20.966;2023-07-13T05:06:45;13.80;;;8.83;;
16890;SDS011;8562;52.246;20.966;2023-07-13T05:09:10;12.10;;;9.33;;
16890;SDS011;8562;52.246;20.966;2023-07-13T05:11:37;11.77;;;9.20;;
16890;SDS011;8562;52.246;20.966;2023-07-13T05:14:02;13.93;;;9.50;;
16890;SDS011;8562;52.246;20.966;2023-07-13T05:16:28;11.17;;;9.23;;
16890;SDS011;8562;52.246;20.966;2023-07-13T05:18:53;11.27;;;8.67;;
16890;SDS011;8562;52.246;20.966;2023-07-13T05:21:19;12.00;;;8.50;;
16890;SDS011;8562;52.246;20.966;2023-07-13T05:23:44;13.90;;;8.53;;
16890;SDS011;8562;52.246;20.966;2023-07-13T05:26:09;13.10;;;10.20;;
16890;SDS011;8562;52.246;20.966;2023-07-13T05:28:35;12.30;;;9.10;;
16890;SDS011;8562;52.246;20.966;2023-07-13T05:31:00;14.67;;;9.63;;
16890;SDS011;8562;52.246;20.966;2023-07-13T05:33:26;16.93;;;9.00;;
16890;SDS011;8562;52.246;20.966;2023-07-13T05:35:51;13.17;;;9.53;;
16890;SDS011;8562;52.246;20.966;2023-07-13T05:38:16;13.33;;;10.20;;
16890;SDS011;8562;52.246;20.966;2023-07-13T05:40:42;14.90;;;10.37;;
16890;SDS011;8562;52.246;20.966;2023-07-13T05:43:08;10.57;;;8.67;;
16890;SDS011;8562;52.246;20.966;2023-07-13T05:45:33;13.73;;;9.83;;
16890;SDS011;8562;52.246;20.966;2023-07-13T05:47:58;11.77;;;9.43;;
16890;SDS011;8562;52.246;20.966;2023-07-13T05:50:25;14.77;;;8.80;;
16890;SDS011;8562;52.246;20.966;2023-07-13T05:52:50;12.97;;;10.10;;
16890;SDS011;8562;52.246;20.966;2023-07-13T05:55:17;13.93;;;9.40;;
16890;SDS011;8562;52.246;20.966;2023-07-13T05:57:42;13.10;;;8.20;;
16890;SDS011;8562;52.246;20.966;2023-07-13T06:00:08;11.93;;;9.40;;
16890;SDS011;8562;52.246;20.966;2023-07-13T06:02:37;17.83;;;10.07;;
16890;SDS011;8562;52.246;20.966;2023-07-13T06:05:02;13.83;;;8.83;;
16890;SDS011;8562;52.246;20.966;2023-07-13T06:07:27;17.27;;;9.87;;
16890;SDS011;8562;52.246;20.966;2023-07-13T06:09:53;13.73;;;8.63;;
16890;SDS011;8562;52.246;20.966;2023-07-13T06:12:18;14.53;;;9.83;;
16890;SDS011;8562;52.246;20.966;2023-07-13T06:14:43;16.87;;;9.37;;
16890;SDS011;8562;52.246;20.966;2023-07-13T06:17:08;12.07;;;9.37;;
16890;SDS011;8562;52.246;20.966;2023-07-13T06:19:34;12.20;;;8.47;;
16890;SDS011;8562;52.246;20.966;2023-07-13T06:21:59;9.30;;;7.00;;
16890;SDS011;8562;52.246;20.966;2023-07-13T06:24:25;9.37;;;7.00;;
16890;SDS011;8562;52.246;20.966;2023-07-13T06:26:50;7.23;;;4.90;;
16890;SDS011;8562;52.246;20.966;2023-07-13T06:29:16;7.23;;;5.07;;
16890;SDS011;8562;52.246;20.966;2023-07-13T06:31:41;9.70;;;5.33;;
16890;SDS011;8562;52.246;20.966;2023-07-13T06:34:06;6.23;;;4.37;;
16890;SDS011;8562;52.246;20.966;2023-07-13T06:36:32;4.33;;;3.90;;
16890;SDS011;8562;52.246;20.966;2023-07-13T06:38:57;7.17;;;5.53;;
16890;SDS011;8562;52.246;20.966;2023-07-13T06:41:22;5.30;;;4.80;;
16890;SDS011;8562;52.246;20.966;2023-07-13T06:43:50;6.57;;;4.20;;
16890;SDS011;8562;52.246;20.966;2023-07-13T06:46:15;7.53;;;5.27;;
16890;SDS011;8562;52.246;20.966;2023-07-13T06:48:40;11.20;;;5.07;;
16890;SDS011;8562;52.246;20.966;2023-07-13T06:51:05;9.03;;;4.67;;
16890;SDS011;8562;52.246;20.966;2023-07-13T06:53:31;6.20;;;4.53;;
16890;SDS011;8562;52.246;20.966;2023-07-13T06:55:56;6.33;;;3.93;;
16890;SDS011;8562;52.246;20.966;2023-07-13T06:58:22;5.60;;;4.37;;
16890;SDS011;8562;52.246;20.966;2023-07-13T07:00:50;6.70;;;4.30;;
16890;SDS011;8562;52.246;20.966;2023-07-13T07:03:16;4.77;;;4.27;;
16890;SDS011;8562;52.246;20.966;2023-07-13T07:05:41;6.20;;;3.97;;
16890;SDS011;8562;52.246;20.966;2023-07-13T07:08:06;5.17;;;3.23;;
16890;SDS011;8562;52.246;20.966;2023-07-13T07:10:32;4.00;;;2.80;;
16890;SDS011;8562;52.246;20.966;2023-07-13T07:12:58;2.60;;;2.30;;
16890;SDS011;8562;52.246;20.966;2023-07-13T07:15:23;2.73;;;2.27;;
16890;SDS011;8562;52.246;20.966;2023-07-13T07:17:49;2.20;;;1.70;;
16890;SDS011;8562;52.246;20.966;2023-07-13T07:20:14;3.50;;;2.40;;
16890;SDS011;8562;52.246;20.966;2023-07-13T07:22:39;2.53;;;2.33;;
16890;SDS011;8562;52.246;20.966;2023-07-13T07:25:04;3.93;;;2.30;;
16890;SDS011;8562;52.246;20.966;2023-07-13T07:27:30;2.37;;;2.07;;
16890;SDS011;8562;52.246;20.966;2023-07-13T07:29:55;2.80;;;2.20;;
16890;SDS011;8562;52.246;20.966;2023-07-13T07:32:22;3.50;;;2.60;;
16890;SDS011;8562;52.246;20.966;2023-07-13T07:34:47;2.43;;;2.23;;
16890;SDS011;8562;52.246;20.966;2023-07-13T07:37:13;2.70;;;2.30;;
16890;SDS011;8562;52.246;20.966;2023-07-13T07:39:39;3.17;;;2.10;;
16890;SDS011;8562;52.246;20.966;2023-07-13T07:42:04;4.27;;;2.83;;
16890;SDS011;8562;52.246;20.966;2023-07-13T07:44:30;4.57;;;3.10;;
16890;SDS011;8562;52.246;20.966;2023-07-13T07:46:56;5.13;;;3.37;;
16890;SDS011;8562;52.246;20.966;2023-07-13T07:49:21;3.20;;;2.90;;
16890;SDS011;8562;52.246;20.966;2023-07-13T07:51:47;5.97;;;3.20;;
16890;SDS011;8562;52.246;20.966;2023-07-13T07:54:12;3.27;;;2.53;;
16890;SDS011;8562;52.246;20.966;2023-07-13T07:56:38;2.90;;;2.43;;
16890;SDS011;8562;52.246;20.966;2023-07-13T07:59:03;2.20;;;2.00;;
16890;SDS011;8562;52.246;20.966;2023-07-13T08:01:29;3.00;;;2.07;;
16890;SDS011;8562;52.246;20.966;2023-07-13T08:03:54;2.47;;;2.23;;
16890;SDS011;8562;52.246;20.966;2023-07-13T08:06:19;2.73;;;2.40;;
16890;SDS011;8562;52.246;20.966;2023-07-13T08:08:45;2.97;;;2.33;;
16890;SDS011;8562;52.246;20.966;2023-07-13T08:11:10;3.47;;;2.80;;
16890;SDS011;8562;52.246;20.966;2023-07-13T08:13:36;6.57;;;2.57;;
16890;SDS011;8562;52.246;20.966;2023-07-13T08:16:03;2.33;;;2.10;;
16890;SDS011;8562;52.246;20.966;2023-07-13T08:18:28;3.17;;;2.60;;
16890;SDS011;8562;52.246;20.966;2023-07-13T08:20:54;2.90;;;2.17;;
16890;SDS011;8562;52.246;20.966;2023-07-13T08:23:22;2.83;;;2.43;;
16890;SDS011;8562;52.246;20.966;2023-07-13T08:25:50;2.87;;;2.53;;
16890;SDS011;8562;52.246;20.966;2023-07-13T08:28:16;2.97;;;2.67;;
16890;SDS011;8562;52.246;20.966;2023-07-13T08:30:41;2.97;;;2.30;;
16890;SDS011;8562;52.246;20.966;2023-07-13T08:33:06;3.07;;;2.73;;
16890;SDS011;8562;52.246;20.966;2023-07-13T08:35:32;6.20;;;3.00;;
16890;SDS011;8562;52.246;20.966;2023-07-13T08:37:57;3.60;;;2.40;;
16890;SDS011;8562;52.246;20.966;2023-07-13T08:40:24;2.47;;;2.27;;
16890;SDS011;8562;52.246;20.966;2023-07-13T08:42:52;2.70;;;2.50;;
16890;SDS011;8562;52.246;20.966;2023-07-13T08:48:04;3.33;;;2.73;;
16890;SDS011;8562;52.246;20.966;2023-07-13T08:50:31;4.87;;;3.00;;
16890;SDS011;8562;52.246;20.966;2023-07-13T08:52:58;3.83;;;3.00;;
16890;SDS011;8562;52.246;20.966;2023-07-13T08:55:25;4.73;;;3.47;;
16890;SDS011;8562;52.246;20.966;2023-07-13T08:57:56;6.23;;;3.50;;
16890;SDS011;8562;52.246;20.966;2023-07-13T09:00:25;3.80;;;2.87;;
16890;SDS011;8562;52.246;20.966;2023-07-13T09:02:57;4.20;;;3.20;;
16890;SDS011;8562;52.246;20.966;2023-07-13T09:10:46;7.00;;;3.63;;
16890;SDS011;8562;52.246;20.966;2023-07-13T09:15:41;3.97;;;3.30;;
16890;SDS011;8562;52.246;20.966;2023-07-13T09:18:14;4.87;;;3.20;;
16890;SDS011;8562;52.246;20.966;2023-07-13T09:20:42;4.70;;;4.13;;
16890;SDS011;8562;52.246;20.966;2023-07-13T09:23:14;5.17;;;3.77;;
16890;SDS011;8562;52.246;20.966;2023-07-13T09:25:40;4.73;;;3.53;;
16890;SDS011;8562;52.246;20.966;2023-07-13T09:28:10;6.87;;;3.43;;
16890;SDS011;8562;52.246;20.966;2023-07-13T09:33:20;4.77;;;3.20;;
16890;SDS011;8562;52.246;20.966;2023-07-13T09:35:46;3.83;;;3.53;;
16890;SDS011;8562;52.246;20.966;2023-07-13T09:40:56;5.23;;;2.90;;
16890;SDS011;8562;52.246;20.966;2023-07-13T09:43:24;5.57;;;3.07;;
16890;SDS011;8562;52.246;20.966;2023-07-13T09:45:49;5.17;;;3.20;;
16890;SDS011;8562;52.246;20.966;2023-07-13T09:48:15;3.77;;;2.97;;
16890;SDS011;8562;52.246;20.966;2023-07-13T09:50:41;3.50;;;2.73;;
16890;SDS011;8562;52.246;20.966;2023-07-13T09:53:11;4.33;;;2.90;;
16890;SDS011;8562;52.246;20.966;2023-07-13T09:55:38;5.13;;;3.70;;
16890;SDS011;8562;52.246;20.966;2023-07-13T09:58:09;4.23;;;2.73;;
16890;SDS011;8562;52.246;20.966;2023-07-13T10:00:35;2.77;;;2.50;;
16890;SDS011;8562;52.246;20.966;2023-07-13T10:03:05;4.50;;;3.20;;
16890;SDS011;8562;52.246;20.966;2023-07-13T10:05:37;3.47;;;2.63;;
16890;SDS011;8562;52.246;20.966;2023-07-13T10:08:02;4.93;;;2.57;;
16890;SDS011;8562;52.246;20.966;2023-07-13T10:10:28;2.80;;;2.40;;
16890;SDS011;8562;52.246;20.966;2023-07-13T10:12:53;3.80;;;3.20;;
16890;SDS011;8562;52.246;20.966;2023-07-13T10:15:21;5.87;;;2.43;;
16890;SDS011;8562;52.246;20.966;2023-07-13T10:17:46;3.97;;;3.27;;
16890;SDS011;8562;52.246;20.966;2023-07-13T10:20:12;2.97;;;2.70;;
16890;SDS011;8562;52.246;20.966;2023-07-13T10:22:43;3.93;;;2.63;;
16890;SDS011;8562;52.246;20.966;2023-07-13T10:25:17;3.93;;;2.80;;
16890;SDS011;8562;52.246;20.966;2023-07-13T10:27:43;13.63;;;3.30;;
16890;SDS011;8562;52.246;20.966;2023-07-13T10:32:37;5.87;;;5.03;;
16890;SDS011;8562;52.246;20.966;2023-07-13T10:35:02;7.07;;;3.47;;
16890;SDS011;8562;52.246;20.966;2023-07-13T10:37:39;3.53;;;3.00;;
16890;SDS011;8562;52.246;20.966;2023-07-13T10:40:06;3.43;;;2.87;;
16890;SDS011;8562;52.246;20.966;2023-07-13T10:42:35;4.10;;;2.87;;
16890;SDS011;8562;52.246;20.966;2023-07-13T10:45:02;4.90;;;2.83;;
16890;SDS011;8562;52.246;20.966;2023-07-13T10:47:28;3.07;;;2.77;;
16890;SDS011;8562;52.246;20.966;2023-07-13T10:49:54;4.50;;;3.03;;
16890;SDS011;8562;52.246;20.966;2023-07-13T10:55:05;4.27;;;2.93;;
16890;SDS011;8562;52.246;20.966;2023-07-13T10:57:31;7.10;;;3.67;;
16890;SDS011;8562;52.246;20.966;2023-07-13T11:00:16;5.00;;;3.27;;
16890;SDS011;8562;52.246;20.966;2023-07-13T11:02:42;5.90;;;3.30;;
16890;SDS011;8562;52.246;20.966;2023-07-13T11:05:25;7.43;;;4.10;;
16890;SDS011;8562;52.246;20.966;2023-07-13T11:07:53;7.80;;;4.80;;
16890;SDS011;8562;52.246;20.966;2023-07-13T11:13:04;7.37;;;4.17;;
16890;SDS011;8562;52.246;20.966;2023-07-13T11:15:32;8.03;;;4.90;;
16890;SDS011;8562;52.246;20.966;2023-07-13T11:17:57;14.03;;;4.23;;
16890;SDS011;8562;52.246;20.966;2023-07-13T11:20:31;6.80;;;4.77;;
16890;SDS011;8562;52.246;20.966;2023-07-13T11:25:37;5.67;;;3.60;;
16890;SDS011;8562;52.246;20.966;2023-07-13T11:30:40;10.90;;;4.33;;
16890;SDS011;8562;52.246;20.966;2023-07-13T11:33:10;5.40;;;3.60;;
16890;SDS011;8562;52.246;20.966;2023-07-13T11:40:56;5.77;;;4.40;;
16890;SDS011;8562;52.246;20.966;2023-07-13T11:43:23;11.47;;;4.10;;
16890;SDS011;8562;52.246;20.966;2023-07-13T11:45:48;7.23;;;4.33;;
16890;SDS011;8562;52.246;20.966;2023-07-13T11:48:18;6.97;;;4.27;;
16890;SDS011;8562;52.246;20.966;2023-07-13T11:50:43;7.97;;;3.77;;
16890;SDS011;8562;52.246;20.966;2023-07-13T11:53:14;6.73;;;4.23;;
16890;SDS011;8562;52.246;20.966;2023-07-13T11:55:40;7.67;;;4.27;;
16890;SDS011;8562;52.246;20.966;2023-07-13T11:58:07;3.87;;;3.30;;
16890;SDS011;8562;52.246;20.966;2023-07-13T12:00:34;4.17;;;3.43;;
16890;SDS011;8562;52.246;20.966;2023-07-13T12:03:00;3.80;;;3.37;;
16890;SDS011;8562;52.246;20.966;2023-07-13T12:05:27;6.33;;;3.87;;
16890;SDS011;8562;52.246;20.966;2023-07-13T12:07:52;3.90;;;3.50;;
16890;SDS011;8562;52.246;20.966;2023-07-13T12:10:29;5.07;;;3.60;;
16890;SDS011;8562;52.246;20.966;2023-07-13T12:12:56;3.50;;;2.67;;
16890;SDS011;8562;52.246;20.966;2023-07-13T12:15:22;5.77;;;3.87;;
16890;SDS011;8562;52.246;20.966;2023-07-13T12:17:48;5.40;;;3.60;;
16890;SDS011;8562;52.246;20.966;2023-07-13T12:20:21;6.27;;;3.50;;
16890;SDS011;8562;52.246;20.966;2023-07-13T12:22:47;5.43;;;3.53;;
16890;SDS011;8562;52.246;20.966;2023-07-13T12:25:13;8.17;;;3.80;;
16890;SDS011;8562;52.246;20.966;2023-07-13T12:27:38;5.50;;;3.47;;
16890;SDS011;8562;52.246;20.966;2023-07-13T12:30:15;3.83;;;3.03;;
16890;SDS011;8562;52.246;20.966;2023-07-13T12:32:57;3.83;;;3.03;;
16890;SDS011;8562;52.246;20.966;2023-07-13T12:35:23;3.67;;;3.37;;
16890;SDS011;8562;52.246;20.966;2023-07-13T12:37:48;4.23;;;3.03;;
16890;SDS011;8562;52.246;20.966;2023-07-13T12:40:15;5.67;;;3.27;;
16890;SDS011;8562;52.246;20.966;2023-07-13T12:42:41;5.97;;;3.20;;
16890;SDS011;8562;52.246;20.966;2023-07-13T12:45:17;5.37;;;3.20;;
16890;SDS011;8562;52.246;20.966;2023-07-13T12:47:43;5.33;;;3.60;;
16890;SDS011;8562;52.246;20.966;2023-07-13T12:50:16;4.77;;;3.53;;
16890;SDS011;8562;52.246;20.966;2023-07-13T12:52:42;5.93;;;3.17;;
16890;SDS011;8562;52.246;20.966;2023-07-13T12:55:13;8.73;;;4.40;;
16890;SDS011;8562;52.246;20.966;2023-07-13T12:57:54;5.03;;;3.80;;
16890;SDS011;8562;52.246;20.966;2023-07-13T13:00:33;4.63;;;3.97;;
16890;SDS011;8562;52.246;20.966;2023-07-13T13:03:33;5.80;;;3.50;;
16890;SDS011;8562;52.246;20.966;2023-07-13T13:06:01;7.37;;;4.40;;
16890;SDS011;8562;52.246;20.966;2023-07-13T13:08:28;7.37;;;3.90;;
16890;SDS011;8562;52.246;20.966;2023-07-13T13:10:53;6.33;;;4.60;;
16890;SDS011;8562;52.246;20.966;2023-07-13T13:13:19;5.33;;;4.03;;
16890;SDS011;8562;52.246;20.966;2023-07-13T13:15:44;6.87;;;4.87;;
16890;SDS011;8562;52.246;20.966;2023-07-13T13:18:17;6.30;;;4.27;;
16890;SDS011;8562;52.246;20.966;2023-07-13T13:20:43;5.20;;;3.93;;
16890;SDS011;8562;52.246;20.966;2023-07-13T13:23:15;6.43;;;5.23;;
16890;SDS011;8562;52.246;20.966;2023-07-13T13:25:43;6.03;;;5.17;;
16890;SDS011;8562;52.246;20.966;2023-07-13T13:28:18;9.70;;;6.00;;
16890;SDS011;8562;52.246;20.966;2023-07-13T13:30:45;9.97;;;5.50;;
16890;SDS011;8562;52.246;20.966;2023-07-13T13:33:11;10.90;;;5.43;;
16890;SDS011;8562;52.246;20.966;2023-07-13T13:35:37;9.03;;;5.77;;
16890;SDS011;8562;52.246;20.966;2023-07-13T13:38:07;8.47;;;5.60;;
16890;SDS011;8562;52.246;20.966;2023-07-13T13:40:34;8.87;;;5.83;;
16890;SDS011;8562;52.246;20.966;2023-07-13T13:42:59;9.23;;;5.93;;
16890;SDS011;8562;52.246;20.966;2023-07-13T13:45:24;12.93;;;6.13;;
16890;SDS011;8562;52.246;20.966;2023-07-13T13:47:50;9.77;;;5.97;;
16890;SDS011;8562;52.246;20.966;2023-07-13T13:50:16;11.03;;;6.80;;
16890;SDS011;8562;52.246;20.966;2023-07-13T13:52:42;12.50;;;7.60;;
16890;SDS011;8562;52.246;20.966;2023-07-13T13:55:11;11.23;;;6.70;;
16890;SDS011;8562;52.246;20.966;2023-07-13T13:57:36;12.77;;;6.53;;
16890;SDS011;8562;52.246;20.966;2023-07-13T14:00:02;11.70;;;7.00;;
16890;SDS011;8562;52.246;20.966;2023-07-13T14:02:30;9.57;;;6.87;;
16890;SDS011;8562;52.246;20.966;2023-07-13T14:04:57;11.07;;;6.27;;
16890;SDS011;8562;52.246;20.966;2023-07-13T14:07:24;8.07;;;5.97;;
16890;SDS011;8562;52.246;20.966;2023-07-13T14:09:49;11.63;;;6.60;;
16890;SDS011;8562;52.246;20.966;2023-07-13T14:12:15;10.70;;;6.67;;
16890;SDS011;8562;52.246;20.966;2023-07-13T14:14:40;9.43;;;6.77;;
16890;SDS011;8562;52.246;20.966;2023-07-13T14:17:11;9.07;;;6.73;;
16890;SDS011;8562;52.246;20.966;2023-07-13T14:19:39;10.87;;;6.10;;
16890;SDS011;8562;52.246;20.966;2023-07-13T14:22:06;9.93;;;6.50;;
16890;SDS011;8562;52.246;20.966;2023-07-13T14:24:31;10.20;;;7.47;;
16890;SDS011;8562;52.246;20.966;2023-07-13T14:26:57;12.23;;;6.30;;
16890;SDS011;8562;52.246;20.966;2023-07-13T14:29:22;7.73;;;6.13;;
16890;SDS011;8562;52.246;20.966;2023-07-13T14:31:47;9.77;;;7.10;;
16890;SDS011;8562;52.246;20.966;2023-07-13T14:34:13;7.90;;;6.40;;
16890;SDS011;8562;52.246;20.966;2023-07-13T14:36:41;8.07;;;6.40;;
16890;SDS011;8562;52.246;20.966;2023-07-13T14:39:14;9.13;;;7.20;;
16890;SDS011;8562;52.246;20.966;2023-07-13T14:41:40;8.40;;;6.40;;
16890;SDS011;8562;52.246;20.966;2023-07-13T14:44:10;12.17;;;6.77;;
16890;SDS011;8562;52.246;20.966;2023-07-13T14:46:36;9.10;;;6.47;;
16890;SDS011;8562;52.246;20.966;2023-07-13T14:49:06;12.43;;;7.50;;
16890;SDS011;8562;52.246;20.966;2023-07-13T14:51:32;9.50;;;7.50;;
16890;SDS011;8562;52.246;20.966;2023-07-13T14:54:00;8.33;;;7.17;;
16890;SDS011;8562;52.246;20.966;2023-07-13T14:56:26;12.67;;;8.00;;
16890;SDS011;8562;52.246;20.966;2023-07-13T14:58:51;10.93;;;7.50;;
16890;SDS011;8562;52.246;20.966;2023-07-13T15:01:18;12.70;;;8.17;;
16890;SDS011;8562;52.246;20.966;2023-07-13T15:03:45;10.10;;;8.33;;
16890;SDS011;8562;52.246;20.966;2023-07-13T15:06:11;11.03;;;8.30;;
16890;SDS011;8562;52.246;20.966;2023-07-13T15:08:36;12.57;;;7.60;;
16890;SDS011;8562;52.246;20.966;2023-07-13T15:11:02;10.50;;;8.43;;
16890;SDS011;8562;52.246;20.966;2023-07-13T15:13:30;12.43;;;8.10;;
16890;SDS011;8562;52.246;20.966;2023-07-13T15:15:55;11.47;;;7.33;;
16890;SDS011;8562;52.246;20.966;2023-07-13T15:18:21;8.70;;;7.53;;